Pinecrest, Florida
Current Conditions -  °F | °C
As of 6:53 AM on Friday 21 Nov 2014 (Local Time) from KTMB Reporting Station
Light Rain Light Rain  
Wind Chill: 70°   Ceiling: 1400
Heat Index: 70°   Visibility: 6mi
Dew Point: 69°   Wind: 10mph
Humidity: 97%   Direction: 30°NNE
Pressure: 30.12"   Gusts: NA
Location:  25.6624°N, 80.3251°W
Report Text: KTMB 211153Z 03009KT 6SM -RA BR FEW009 OVC014 21/21 A3012 RMK AO2 RAB02 SLP198 P0002 60004 70004 T02110206 10222 20211 53009
Loading
Personal Weather Stations






























Interactive Weather Map New forecast layout! Learn more

10-Day Weather Forecast

Advertisements
Track Severe Weather on mobile